sensor_id;sensor_type;location;lat;lon;timestamp;temperature;humidity
9699;DHT22;10089;47.876;8.346;2023-12-20T00:01:47;3.50;1.00
9699;DHT22;10089;47.876;8.346;2023-12-20T00:04:13;3.10;1.00
9699;DHT22;10089;47.876;8.346;2023-12-20T00:06:38;3.40;1.00
9699;DHT22;10089;47.876;8.346;2023-12-20T00:09:04;3.60;1.00
9699;DHT22;10089;47.876;8.346;2023-12-20T00:11:29;3.50;1.00
9699;DHT22;10089;47.876;8.346;2023-12-20T00:13:55;3.20;1.00
9699;DHT22;10089;47.876;8.346;2023-12-20T00:16:21;5.50;1.00
9699;DHT22;10089;47.876;8.346;2023-12-20T00:18:46;3.60;1.00
9699;DHT22;10089;47.876;8.346;2023-12-20T00:21:12;3.60;1.00
9699;DHT22;10089;47.876;8.346;2023-12-20T00:23:37;3.40;1.00
9699;DHT22;10089;47.876;8.346;2023-12-20T00:26:03;3.50;1.00
9699;DHT22;10089;47.876;8.346;2023-12-20T00:28:29;3.00;1.00
9699;DHT22;10089;47.876;8.346;2023-12-20T00:30:54;3.60;1.00
9699;DHT22;10089;47.876;8.346;2023-12-20T00:33:20;3.50;6.50
9699;DHT22;10089;47.876;8.346;2023-12-20T00:35:45;3.50;1.00
9699;DHT22;10089;47.876;8.346;2023-12-20T00:38:11;3.40;1.00
9699;DHT22;10089;47.876;8.346;2023-12-20T00:40:46;3.20;10.40
9699;DHT22;10089;47.876;8.346;2023-12-20T00:43:12;3.60;20.20
9699;DHT22;10089;47.876;8.346;2023-12-20T00:45:37;3.40;17.30
9699;DHT22;10089;47.876;8.346;2023-12-20T00:48:03;3.60;25.60
9699;DHT22;10089;47.876;8.346;2023-12-20T00:50:28;4.00;42.90
9699;DHT22;10089;47.876;8.346;2023-12-20T00:52:54;3.60;60.00
9699;DHT22;10089;47.876;8.346;2023-12-20T00:55:20;3.40;39.90
9699;DHT22;10089;47.876;8.346;2023-12-20T00:57:45;3.60;36.80
9699;DHT22;10089;47.876;8.346;2023-12-20T01:00:11;6.20;52.80
9699;DHT22;10089;47.876;8.346;2023-12-20T01:02:38;4.00;85.40
9699;DHT22;10089;47.876;8.346;2023-12-20T01:05:04;3.70;78.10
9699;DHT22;10089;47.876;8.346;2023-12-20T01:07:30;4.00;92.80
9699;DHT22;10089;47.876;8.346;2023-12-20T01:09:56;3.80;94.00
9699;DHT22;10089;47.876;8.346;2023-12-20T01:12:21;3.30;99.90
9699;DHT22;10089;47.876;8.346;2023-12-20T01:14:47;3.40;99.90
9699;DHT22;10089;47.876;8.346;2023-12-20T01:17:12;4.80;99.90
9699;DHT22;10089;47.876;8.346;2023-12-20T01:19:38;5.90;99.90
9699;DHT22;10089;47.876;8.346;2023-12-20T01:22:04;3.50;99.90
9699;DHT22;10089;47.876;8.346;2023-12-20T01:24:29;3.40;99.90
9699;DHT22;10089;47.876;8.346;2023-12-20T01:26:55;3.70;99.90
9699;DHT22;10089;47.876;8.346;2023-12-20T01:29:21;3.60;99.90
9699;DHT22;10089;47.876;8.346;2023-12-20T01:31:46;3.80;99.90
9699;DHT22;10089;47.876;8.346;2023-12-20T01:34:12;3.60;99.90
9699;DHT22;10089;47.876;8.346;2023-12-20T01:36:38;3.40;99.90
9699;DHT22;10089;47.876;8.346;2023-12-20T01:39:03;3.90;99.90
9699;DHT22;10089;47.876;8.346;2023-12-20T01:41:29;4.50;99.90
9699;DHT22;10089;47.876;8.346;2023-12-20T01:43:55;3.70;99.90
9699;DHT22;10089;47.876;8.346;2023-12-20T01:46:21;3.90;99.90
9699;DHT22;10089;47.876;8.346;2023-12-20T01:48:48;3.90;99.90
9699;DHT22;10089;47.876;8.346;2023-12-20T01:51:13;3.80;99.90
9699;DHT22;10089;47.876;8.346;2023-12-20T01:53:39;3.90;99.90
9699;DHT22;10089;47.876;8.346;2023-12-20T01:56:06;3.80;99.90
9699;DHT22;10089;47.876;8.346;2023-12-20T01:58:32;4.20;99.90
9699;DHT22;10089;47.876;8.346;2023-12-20T02:00:58;4.00;99.90
9699;DHT22;10089;47.876;8.346;2023-12-20T02:03:24;4.00;99.90
9699;DHT22;10089;47.876;8.346;2023-12-20T02:05:50;3.40;99.90
9699;DHT22;10089;47.876;8.346;2023-12-20T02:08:16;3.30;99.90
9699;DHT22;10089;47.876;8.346;2023-12-20T02:10:41;3.40;99.90
9699;DHT22;10089;47.876;8.346;2023-12-20T02:13:07;3.80;99.90
9699;DHT22;10089;47.876;8.346;2023-12-20T02:15:33;3.80;99.90
9699;DHT22;10089;47.876;8.346;2023-12-20T02:17:59;3.70;99.90
9699;DHT22;10089;47.876;8.346;2023-12-20T02:20:24;3.60;99.90
9699;DHT22;10089;47.876;8.346;2023-12-20T02:22:50;4.10;99.90
9699;DHT22;10089;47.876;8.346;2023-12-20T02:25:15;3.00;99.90
9699;DHT22;10089;47.876;8.346;2023-12-20T02:27:41;3.20;99.90
9699;DHT22;10089;47.876;8.346;2023-12-20T02:30:07;3.50;99.90
9699;DHT22;10089;47.876;8.346;2023-12-20T02:32:33;3.70;99.90
9699;DHT22;10089;47.876;8.346;2023-12-20T02:34:59;3.50;99.90
9699;DHT22;10089;47.876;8.346;2023-12-20T02:37:24;3.30;99.90
9699;DHT22;10089;47.876;8.346;2023-12-20T02:39:50;3.30;99.90
9699;DHT22;10089;47.876;8.346;2023-12-20T02:42:15;3.10;99.90
9699;DHT22;10089;47.876;8.346;2023-12-20T02:44:41;6.00;99.90
9699;DHT22;10089;47.876;8.346;2023-12-20T02:47:07;3.10;99.90
9699;DHT22;10089;47.876;8.346;2023-12-20T02:49:32;2.70;99.90
9699;DHT22;10089;47.876;8.346;2023-12-20T02:51:58;3.00;99.90
9699;DHT22;10089;47.876;8.346;2023-12-20T02:54:23;3.20;99.90
9699;DHT22;10089;47.876;8.346;2023-12-20T02:56:49;3.30;99.90
9699;DHT22;10089;47.876;8.346;2023-12-20T02:59:14;3.20;99.90
9699;DHT22;10089;47.876;8.346;2023-12-20T03:01:46;2.60;99.90
9699;DHT22;10089;47.876;8.346;2023-12-20T03:04:12;2.70;99.90
9699;DHT22;10089;47.876;8.346;2023-12-20T03:06:38;2.70;99.90
9699;DHT22;10089;47.876;8.346;2023-12-20T03:09:04;2.70;99.90
9699;DHT22;10089;47.876;8.346;2023-12-20T03:11:30;2.80;99.90
9699;DHT22;10089;47.876;8.346;2023-12-20T03:13:56;2.30;99.90
9699;DHT22;10089;47.876;8.346;2023-12-20T03:16:22;2.30;99.90
9699;DHT22;10089;47.876;8.346;2023-12-20T03:18:48;2.40;99.90
9699;DHT22;10089;47.876;8.346;2023-12-20T03:21:14;2.20;99.90
9699;DHT22;10089;47.876;8.346;2023-12-20T03:23:40;2.80;99.90
9699;DHT22;10089;47.876;8.346;2023-12-20T03:26:09;2.40;99.90
9699;DHT22;10089;47.876;8.346;2023-12-20T03:28:36;2.80;99.90
9699;DHT22;10089;47.876;8.346;2023-12-20T03:31:01;2.60;99.90
9699;DHT22;10089;47.876;8.346;2023-12-20T03:33:29;2.90;99.90
9699;DHT22;10089;47.876;8.346;2023-12-20T03:35:54;2.60;99.90
9699;DHT22;10089;47.876;8.346;2023-12-20T03:38:21;2.50;99.90
9699;DHT22;10089;47.876;8.346;2023-12-20T03:40:46;2.40;99.90
9699;DHT22;10089;47.876;8.346;2023-12-20T03:43:12;2.70;99.90
9699;DHT22;10089;47.876;8.346;2023-12-20T03:45:38;2.70;99.90
9699;DHT22;10089;47.876;8.346;2023-12-20T03:48:04;2.20;99.90
9699;DHT22;10089;47.876;8.346;2023-12-20T03:50:30;2.80;99.90
9699;DHT22;10089;47.876;8.346;2023-12-20T03:52:55;2.30;99.90
9699;DHT22;10089;47.876;8.346;2023-12-20T03:55:21;2.50;99.90
9699;DHT22;10089;47.876;8.346;2023-12-20T03:57:46;2.20;99.90
9699;DHT22;10089;47.876;8.346;2023-12-20T04:00:12;2.40;99.90
9699;DHT22;10089;47.876;8.346;2023-12-20T04:02:39;2.70;99.90
9699;DHT22;10089;47.876;8.346;2023-12-20T04:05:05;1.90;99.90
9699;DHT22;10089;47.876;8.346;2023-12-20T04:07:31;2.80;99.90
9699;DHT22;10089;47.876;8.346;2023-12-20T04:09:57;2.30;99.90
9699;DHT22;10089;47.876;8.346;2023-12-20T04:12:23;2.10;99.90
9699;DHT22;10089;47.876;8.346;2023-12-20T04:14:48;2.40;99.90
9699;DHT22;10089;47.876;8.346;2023-12-20T04:17:15;2.60;99.90
9699;DHT22;10089;47.876;8.346;2023-12-20T04:19:42;2.50;99.90
9699;DHT22;10089;47.876;8.346;2023-12-20T04:22:08;2.50;99.90
9699;DHT22;10089;47.876;8.346;2023-12-20T04:24:33;2.40;99.90
9699;DHT22;10089;47.876;8.346;2023-12-20T04:26:59;2.30;99.90
9699;DHT22;10089;47.876;8.346;2023-12-20T04:29:24;2.40;99.90
9699;DHT22;10089;47.876;8.346;2023-12-20T04:31:50;2.50;99.90
9699;DHT22;10089;47.876;8.346;2023-12-20T04:34:17;2.10;99.90
9699;DHT22;10089;47.876;8.346;2023-12-20T04:36:43;2.00;99.90
9699;DHT22;10089;47.876;8.346;2023-12-20T04:39:09;1.70;99.90
9699;DHT22;10089;47.876;8.346;2023-12-20T04:41:35;2.30;99.90
9699;DHT22;10089;47.876;8.346;2023-12-20T04:44:00;2.30;99.90
9699;DHT22;10089;47.876;8.346;2023-12-20T04:46:26;2.20;99.90
9699;DHT22;10089;47.876;8.346;2023-12-20T04:48:52;2.40;99.90
9699;DHT22;10089;47.876;8.346;2023-12-20T04:51:17;4.10;99.90
9699;DHT22;10089;47.876;8.346;2023-12-20T04:53:43;3.30;99.90
9699;DHT22;10089;47.876;8.346;2023-12-20T04:56:09;1.60;99.90
9699;DHT22;10089;47.876;8.346;2023-12-20T04:58:34;2.30;99.90
9699;DHT22;10089;47.876;8.346;2023-12-20T05:01:00;2.10;99.90
9699;DHT22;10089;47.876;8.346;2023-12-20T05:03:26;2.20;99.90
9699;DHT22;10089;47.876;8.346;2023-12-20T05:05:51;2.30;99.90
9699;DHT22;10089;47.876;8.346;2023-12-20T05:08:17;1.80;99.90
9699;DHT22;10089;47.876;8.346;2023-12-20T05:10:42;2.20;99.90
9699;DHT22;10089;47.876;8.346;2023-12-20T05:13:08;2.20;99.90
9699;DHT22;10089;47.876;8.346;2023-12-20T05:15:34;4.20;99.90
9699;DHT22;10089;47.876;8.346;2023-12-20T05:17:59;2.50;99.90
9699;DHT22;10089;47.876;8.346;2023-12-20T05:20:25;1.90;99.90
9699;DHT22;10089;47.876;8.346;2023-12-20T05:22:51;2.00;99.90
9699;DHT22;10089;47.876;8.346;2023-12-20T05:25:16;2.40;99.90
9699;DHT22;10089;47.876;8.346;2023-12-20T05:27:42;2.40;99.90
9699;DHT22;10089;47.876;8.346;2023-12-20T05:30:08;1.90;99.90
9699;DHT22;10089;47.876;8.346;2023-12-20T05:32:33;2.50;99.90
9699;DHT22;10089;47.876;8.346;2023-12-20T05:34:59;1.60;99.90
9699;DHT22;10089;47.876;8.346;2023-12-20T05:37:24;2.30;99.90
9699;DHT22;10089;47.876;8.346;2023-12-20T05:39:51;5.30;99.90
9699;DHT22;10089;47.876;8.346;2023-12-20T05:42:16;2.40;99.90
9699;DHT22;10089;47.876;8.346;2023-12-20T05:44:42;2.10;99.90
9699;DHT22;10089;47.876;8.346;2023-12-20T05:47:07;2.10;99.90
9699;DHT22;10089;47.876;8.346;2023-12-20T05:49:33;2.50;99.90
9699;DHT22;10089;47.876;8.346;2023-12-20T05:51:58;2.40;99.90
9699;DHT22;10089;47.876;8.346;2023-12-20T05:54:24;2.30;99.90
9699;DHT22;10089;47.876;8.346;2023-12-20T05:56:49;2.10;99.90
9699;DHT22;10089;47.876;8.346;2023-12-20T05:59:16;2.40;99.90
9699;DHT22;10089;47.876;8.346;2023-12-20T06:01:41;2.40;99.90
9699;DHT22;10089;47.876;8.346;2023-12-20T06:04:07;2.40;99.90
9699;DHT22;10089;47.876;8.346;2023-12-20T06:06:32;2.50;99.90
9699;DHT22;10089;47.876;8.346;2023-12-20T06:08:58;1.90;99.90
9699;DHT22;10089;47.876;8.346;2023-12-20T06:11:24;2.40;99.90
9699;DHT22;10089;47.876;8.346;2023-12-20T06:13:49;2.30;99.90
9699;DHT22;10089;47.876;8.346;2023-12-20T06:16:18;2.40;99.90
9699;DHT22;10089;47.876;8.346;2023-12-20T06:18:43;2.10;99.90
9699;DHT22;10089;47.876;8.346;2023-12-20T06:21:09;2.50;99.90
9699;DHT22;10089;47.876;8.346;2023-12-20T06:23:38;2.40;99.90
9699;DHT22;10089;47.876;8.346;2023-12-20T06:26:03;2.40;99.90
9699;DHT22;10089;47.876;8.346;2023-12-20T06:28:29;2.20;99.90
9699;DHT22;10089;47.876;8.346;2023-12-20T06:30:55;2.00;99.90
9699;DHT22;10089;47.876;8.346;2023-12-20T06:33:22;3.40;99.90
9699;DHT22;10089;47.876;8.346;2023-12-20T06:35:48;2.50;99.90
9699;DHT22;10089;47.876;8.346;2023-12-20T06:38:14;2.40;99.90
9699;DHT22;10089;47.876;8.346;2023-12-20T06:40:40;2.40;99.90
9699;DHT22;10089;47.876;8.346;2023-12-20T06:43:05;2.40;99.90
9699;DHT22;10089;47.876;8.346;2023-12-20T06:45:32;2.40;99.90
9699;DHT22;10089;47.876;8.346;2023-12-20T06:47:58;2.40;99.90
9699;DHT22;10089;47.876;8.346;2023-12-20T06:50:24;2.40;99.90
9699;DHT22;10089;47.876;8.346;2023-12-20T06:52:49;2.40;99.90
9699;DHT22;10089;47.876;8.346;2023-12-20T06:55:15;2.40;99.90
9699;DHT22;10089;47.876;8.346;2023-12-20T06:57:42;1.90;99.90
9699;DHT22;10089;47.876;8.346;2023-12-20T07:00:08;2.40;99.90
9699;DHT22;10089;47.876;8.346;2023-12-20T07:02:36;2.80;99.90
9699;DHT22;10089;47.876;8.346;2023-12-20T07:05:01;2.40;99.90
9699;DHT22;10089;47.876;8.346;2023-12-20T07:07:27;2.60;99.90
9699;DHT22;10089;47.876;8.346;2023-12-20T07:09:53;2.40;99.90
9699;DHT22;10089;47.876;8.346;2023-12-20T07:12:18;1.80;99.90
9699;DHT22;10089;47.876;8.346;2023-12-20T07:14:45;1.50;99.90
9699;DHT22;10089;47.876;8.346;2023-12-20T07:17:11;2.20;99.90
9699;DHT22;10089;47.876;8.346;2023-12-20T07:19:39;4.80;99.90
9699;DHT22;10089;47.876;8.346;2023-12-20T07:22:06;2.50;99.90
9699;DHT22;10089;47.876;8.346;2023-12-20T07:24:32;4.80;99.90
9699;DHT22;10089;47.876;8.346;2023-12-20T07:26:58;2.30;99.90
9699;DHT22;10089;47.876;8.346;2023-12-20T07:29:24;2.50;99.90
9699;DHT22;10089;47.876;8.346;2023-12-20T07:31:50;2.50;99.90
9699;DHT22;10089;47.876;8.346;2023-12-20T07:34:17;2.60;99.90
9699;DHT22;10089;47.876;8.346;2023-12-20T07:36:43;2.40;99.90
9699;DHT22;10089;47.876;8.346;2023-12-20T07:39:08;2.50;99.90
9699;DHT22;10089;47.876;8.346;2023-12-20T07:41:34;2.50;99.90
9699;DHT22;10089;47.876;8.346;2023-12-20T07:44:00;2.10;99.90
9699;DHT22;10089;47.876;8.346;2023-12-20T07:46:25;3.40;99.90
9699;DHT22;10089;47.876;8.346;2023-12-20T07:48:54;2.60;99.90
9699;DHT22;10089;47.876;8.346;2023-12-20T07:51:22;4.20;99.90
9699;DHT22;10089;47.876;8.346;2023-12-20T07:53:48;4.90;99.90
9699;DHT22;10089;47.876;8.346;2023-12-20T07:56:18;2.20;99.90
9699;DHT22;10089;47.876;8.346;2023-12-20T07:58:44;3.80;99.90
9699;DHT22;10089;47.876;8.346;2023-12-20T08:01:11;2.10;99.90
9699;DHT22;10089;47.876;8.346;2023-12-20T08:03:37;2.00;99.90
9699;DHT22;10089;47.876;8.346;2023-12-20T08:06:03;4.10;99.90
9699;DHT22;10089;47.876;8.346;2023-12-20T08:08:29;3.10;99.90
9699;DHT22;10089;47.876;8.346;2023-12-20T08:10:54;4.00;99.90
9699;DHT22;10089;47.876;8.346;2023-12-20T08:13:20;2.40;99.90
9699;DHT22;10089;47.876;8.346;2023-12-20T08:15:50;2.60;99.90
9699;DHT22;10089;47.876;8.346;2023-12-20T08:18:16;2.20;99.90
9699;DHT22;10089;47.876;8.346;2023-12-20T08:20:41;2.40;99.90
9699;DHT22;10089;47.876;8.346;2023-12-20T08:23:07;4.20;99.90
9699;DHT22;10089;47.876;8.346;2023-12-20T08:25:32;2.30;99.90
9699;DHT22;10089;47.876;8.346;2023-12-20T08:27:58;2.80;99.90
9699;DHT22;10089;47.876;8.346;2023-12-20T08:30:23;2.80;99.90
9699;DHT22;10089;47.876;8.346;2023-12-20T08:32:50;2.80;99.90
9699;DHT22;10089;47.876;8.346;2023-12-20T08:35:16;2.80;99.90
9699;DHT22;10089;47.876;8.346;2023-12-20T08:37:42;4.20;99.90
9699;DHT22;10089;47.876;8.346;2023-12-20T08:40:08;2.50;99.90
9699;DHT22;10089;47.876;8.346;2023-12-20T08:42:34;2.90;99.90
9699;DHT22;10089;47.876;8.346;2023-12-20T08:45:00;2.90;99.90
9699;DHT22;10089;47.876;8.346;2023-12-20T08:47:25;2.60;99.90
9699;DHT22;10089;47.876;8.346;2023-12-20T08:49:51;2.90;99.90
9699;DHT22;10089;47.876;8.346;2023-12-20T08:52:24;4.30;99.90
9699;DHT22;10089;47.876;8.346;2023-12-20T08:54:50;3.00;99.90
9699;DHT22;10089;47.876;8.346;2023-12-20T08:57:20;2.90;99.90
9699;DHT22;10089;47.876;8.346;2023-12-20T08:59:49;2.50;99.90
9699;DHT22;10089;47.876;8.346;2023-12-20T09:02:16;2.40;99.90
9699;DHT22;10089;47.876;8.346;2023-12-20T09:04:42;2.90;99.90
9699;DHT22;10089;47.876;8.346;2023-12-20T09:07:27;2.80;99.90
9699;DHT22;10089;47.876;8.346;2023-12-20T09:09:53;3.20;99.90
9699;DHT22;10089;47.876;8.346;2023-12-20T09:12:19;2.70;99.90
9699;DHT22;10089;47.876;8.346;2023-12-20T09:14:46;3.20;99.90
9699;DHT22;10089;47.876;8.346;2023-12-20T09:17:12;3.20;99.90
9699;DHT22;10089;47.876;8.346;2023-12-20T09:19:38;3.00;99.90
9699;DHT22;10089;47.876;8.346;2023-12-20T09:22:04;2.90;99.90
9699;DHT22;10089;47.876;8.346;2023-12-20T09:27:47;4.40;99.90
9699;DHT22;10089;47.876;8.346;2023-12-20T09:30:28;3.70;99.90
9699;DHT22;10089;47.876;8.346;2023-12-20T09:33:10;4.40;99.90
9699;DHT22;10089;47.876;8.346;2023-12-20T09:35:36;3.70;99.90
9699;DHT22;10089;47.876;8.346;2023-12-20T09:38:02;2.50;99.90
9699;DHT22;10089;47.876;8.346;2023-12-20T09:40:29;4.10;99.90
9699;DHT22;10089;47.876;8.346;2023-12-20T09:42:58;6.50;99.90
9699;DHT22;10089;47.876;8.346;2023-12-20T09:45:29;3.80;99.90
9699;DHT22;10089;47.876;8.346;2023-12-20T09:47:56;5.90;99.90
9699;DHT22;10089;47.876;8.346;2023-12-20T09:50:23;4.20;99.90
9699;DHT22;10089;47.876;8.346;2023-12-20T09:52:51;4.40;99.90
9699;DHT22;10089;47.876;8.346;2023-12-20T09:55:18;3.90;99.90
9699;DHT22;10089;47.876;8.346;2023-12-20T09:57:44;4.90;99.90
9699;DHT22;10089;47.876;8.346;2023-12-20T10:00:11;5.70;99.90
9699;DHT22;10089;47.876;8.346;2023-12-20T10:05:35;4.80;99.90
9699;DHT22;10089;47.876;8.346;2023-12-20T10:08:01;4.50;99.90
9699;DHT22;10089;47.876;8.346;2023-12-20T10:10:28;4.50;99.90
9699;DHT22;10089;47.876;8.346;2023-12-20T10:13:05;4.70;43.00
9699;DHT22;10089;47.876;8.346;2023-12-20T10:15:35;4.40;23.20
9699;DHT22;10089;47.876;8.346;2023-12-20T10:18:02;6.20;99.90
9699;DHT22;10089;47.876;8.346;2023-12-20T10:20:29;4.00;90.40
9699;DHT22;10089;47.876;8.346;2023-12-20T10:22:56;5.70;99.90
9699;DHT22;10089;47.876;8.346;2023-12-20T10:25:22;3.30;72.20
9699;DHT22;10089;47.876;8.346;2023-12-20T10:27:49;5.80;99.90
9699;DHT22;10089;47.876;8.346;2023-12-20T10:30:15;4.00;99.90
9699;DHT22;10089;47.876;8.346;2023-12-20T10:32:40;3.90;31.80
9699;DHT22;10089;47.876;8.346;2023-12-20T10:35:06;4.30;1.00
9699;DHT22;10089;47.876;8.346;2023-12-20T10:37:36;4.90;1.00
9699;DHT22;10089;47.876;8.346;2023-12-20T10:40:04;4.00;18.90
9699;DHT22;10089;47.876;8.346;2023-12-20T10:42:31;4.40;76.20
9699;DHT22;10089;47.876;8.346;2023-12-20T10:44:59;4.00;30.30
9699;DHT22;10089;47.876;8.346;2023-12-20T10:47:26;4.80;1.00
9699;DHT22;10089;47.876;8.346;2023-12-20T10:49:55;4.80;1.00
9699;DHT22;10089;47.876;8.346;2023-12-20T10:52:23;4.60;1.00
9699;DHT22;10089;47.876;8.346;2023-12-20T10:54:49;4.30;1.00
9699;DHT22;10089;47.876;8.346;2023-12-20T10:57:16;6.70;1.00
9699;DHT22;10089;47.876;8.346;2023-12-20T10:59:45;5.80;1.00
9699;DHT22;10089;47.876;8.346;2023-12-20T11:02:38;4.20;1.00
9699;DHT22;10089;47.876;8.346;2023-12-20T11:07:41;4.90;1.00
9699;DHT22;10089;47.876;8.346;2023-12-20T11:10:22;6.40;1.00
9699;DHT22;10089;47.876;8.346;2023-12-20T11:13:28;7.10;1.00
9699;DHT22;10089;47.876;8.346;2023-12-20T11:15:56;7.40;1.00
9699;DHT22;10089;47.876;8.346;2023-12-20T11:18:31;3.80;1.00
9699;DHT22;10089;47.876;8.346;2023-12-20T11:21:09;4.80;1.00
9699;DHT22;10089;47.876;8.346;2023-12-20T11:23:36;3.80;1.00
9699;DHT22;10089;47.876;8.346;2023-12-20T11:26:02;3.80;1.00
9699;DHT22;10089;47.876;8.346;2023-12-20T11:28:28;4.40;1.00
9699;DHT22;10089;47.876;8.346;2023-12-20T11:31:01;4.10;1.00
9699;DHT22;10089;47.876;8.346;2023-12-20T11:33:36;5.80;1.00
9699;DHT22;10089;47.876;8.346;2023-12-20T11:36:02;3.90;1.00
9699;DHT22;10089;47.876;8.346;2023-12-20T11:38:36;3.70;1.00
9699;DHT22;10089;47.876;8.346;2023-12-20T11:41:05;4.70;96.10
9699;DHT22;10089;47.876;8.346;2023-12-20T11:43:34;2.80;99.90
9699;DHT22;10089;47.876;8.346;2023-12-20T11:46:08;6.10;99.90
9699;DHT22;10089;47.876;8.346;2023-12-20T11:48:36;2.90;99.90
9699;DHT22;10089;47.876;8.346;2023-12-20T11:51:02;3.20;22.50
9699;DHT22;10089;47.876;8.346;2023-12-20T11:53:29;3.30;34.60
9699;DHT22;10089;47.876;8.346;2023-12-20T11:55:57;2.90;78.30
9699;DHT22;10089;47.876;8.346;2023-12-20T11:58:23;4.00;94.20
9699;DHT22;10089;47.876;8.346;2023-12-20T12:00:50;4.80;46.90
9699;DHT22;10089;47.876;8.346;2023-12-20T12:03:17;2.40;41.60
9699;DHT22;10089;47.876;8.346;2023-12-20T12:05:42;4.80;16.90
9699;DHT22;10089;47.876;8.346;2023-12-20T12:08:08;4.30;22.10
9699;DHT22;10089;47.876;8.346;2023-12-20T12:10:33;3.00;1.00
9699;DHT22;10089;47.876;8.346;2023-12-20T12:12:59;5.40;1.00
9699;DHT22;10089;47.876;8.346;2023-12-20T12:15:26;5.70;1.00
9699;DHT22;10089;47.876;8.346;2023-12-20T12:17:56;2.50;1.00
9699;DHT22;10089;47.876;8.346;2023-12-20T12:20:22;5.50;1.00
9699;DHT22;10089;47.876;8.346;2023-12-20T12:22:58;3.60;1.00
9699;DHT22;10089;47.876;8.346;2023-12-20T12:25:24;3.20;1.00
9699;DHT22;10089;47.876;8.346;2023-12-20T12:27:52;4.60;1.00
9699;DHT22;10089;47.876;8.346;2023-12-20T12:30:21;5.70;1.00
9699;DHT22;10089;47.876;8.346;2023-12-20T12:32:47;3.60;99.90
9699;DHT22;10089;47.876;8.346;2023-12-20T12:35:14;5.60;99.90
9699;DHT22;10089;47.876;8.346;2023-12-20T12:37:40;4.20;1.00
9699;DHT22;10089;47.876;8.346;2023-12-20T12:40:11;3.40;99.90
9699;DHT22;10089;47.876;8.346;2023-12-20T12:42:38;4.10;1.00
9699;DHT22;10089;47.876;8.346;2023-12-20T12:45:04;5.40;99.90
9699;DHT22;10089;47.876;8.346;2023-12-20T12:47:30;3.80;99.90
9699;DHT22;10089;47.876;8.346;2023-12-20T12:49:56;2.60;99.90
9699;DHT22;10089;47.876;8.346;2023-12-20T12:52:22;5.80;99.90
9699;DHT22;10089;47.876;8.346;2023-12-20T12:54:48;5.40;99.90
9699;DHT22;10089;47.876;8.346;2023-12-20T12:57:15;5.50;99.90
9699;DHT22;10089;47.876;8.346;2023-12-20T12:59:42;5.20;99.90
9699;DHT22;10089;47.876;8.346;2023-12-20T13:02:09;5.60;99.90
9699;DHT22;10089;47.876;8.346;2023-12-20T13:04:35;5.40;99.90
9699;DHT22;10089;47.876;8.346;2023-12-20T13:07:01;5.00;1.00
9699;DHT22;10089;47.876;8.346;2023-12-20T13:09:26;3.00;99.90
9699;DHT22;10089;47.876;8.346;2023-12-20T13:11:52;4.30;1.00
9699;DHT22;10089;47.876;8.346;2023-12-20T13:14:18;4.60;1.00
9699;DHT22;10089;47.876;8.346;2023-12-20T13:16:44;4.20;1.00
9699;DHT22;10089;47.876;8.346;2023-12-20T13:19:11;2.50;1.00
9699;DHT22;10089;47.876;8.346;2023-12-20T13:21:36;5.80;1.00
9699;DHT22;10089;47.876;8.346;2023-12-20T13:24:02;2.00;1.00
9699;DHT22;10089;47.876;8.346;2023-12-20T13:26:28;2.70;1.00
9699;DHT22;10089;47.876;8.346;2023-12-20T13:28:54;4.40;1.00
9699;DHT22;10089;47.876;8.346;2023-12-20T13:31:20;3.10;1.00
9699;DHT22;10089;47.876;8.346;2023-12-20T13:33:46;4.70;1.00
9699;DHT22;10089;47.876;8.346;2023-12-20T13:36:12;2.10;1.00
9699;DHT22;10089;47.876;8.346;2023-12-20T13:38:38;2.70;1.00
9699;DHT22;10089;47.876;8.346;2023-12-20T13:41:04;1.30;1.00
9699;DHT22;10089;47.876;8.346;2023-12-20T13:43:31;1.70;1.00
9699;DHT22;10089;47.876;8.346;2023-12-20T13:45:58;2.30;1.00
9699;DHT22;10089;47.876;8.346;2023-12-20T13:48:24;4.20;99.90
9699;DHT22;10089;47.876;8.346;2023-12-20T13:50:50;1.60;99.90
9699;DHT22;10089;47.876;8.346;2023-12-20T13:53:15;1.80;1.00
9699;DHT22;10089;47.876;8.346;2023-12-20T13:55:41;3.90;1.00
9699;DHT22;10089;47.876;8.346;2023-12-20T13:58:07;3.50;1.00
9699;DHT22;10089;47.876;8.346;2023-12-20T14:00:32;1.50;1.00
9699;DHT22;10089;47.876;8.346;2023-12-20T14:02:58;1.90;1.00
9699;DHT22;10089;47.876;8.346;2023-12-20T14:05:24;2.50;1.00
9699;DHT22;10089;47.876;8.346;2023-12-20T14:07:49;4.70;1.00
9699;DHT22;10089;47.876;8.346;2023-12-20T14:10:16;1.80;1.00
9699;DHT22;10089;47.876;8.346;2023-12-20T14:12:41;4.20;1.00
9699;DHT22;10089;47.876;8.346;2023-12-20T14:15:08;2.60;1.00
9699;DHT22;10089;47.876;8.346;2023-12-20T14:17:38;2.70;99.90
9699;DHT22;10089;47.876;8.346;2023-12-20T14:20:15;2.30;99.90
9699;DHT22;10089;47.876;8.346;2023-12-20T14:22:46;2.50;99.90
9699;DHT22;10089;47.876;8.346;2023-12-20T14:25:13;1.50;1.00
9699;DHT22;10089;47.876;8.346;2023-12-20T14:27:40;3.90;1.00
9699;DHT22;10089;47.876;8.346;2023-12-20T14:30:06;1.70;99.90
9699;DHT22;10089;47.876;8.346;2023-12-20T14:32:34;2.60;99.90
9699;DHT22;10089;47.876;8.346;2023-12-20T14:35:02;2.70;99.90
9699;DHT22;10089;47.876;8.346;2023-12-20T14:37:29;2.60;99.90
9699;DHT22;10089;47.876;8.346;2023-12-20T14:39:55;1.80;99.90
9699;DHT22;10089;47.876;8.346;2023-12-20T14:42:20;1.80;99.90
9699;DHT22;10089;47.876;8.346;2023-12-20T14:44:47;2.90;99.90
9699;DHT22;10089;47.876;8.346;2023-12-20T14:47:13;1.50;1.00
9699;DHT22;10089;47.876;8.346;2023-12-20T14:49:40;1.80;1.00
9699;DHT22;10089;47.876;8.346;2023-12-20T14:52:06;1.20;1.00
9699;DHT22;10089;47.876;8.346;2023-12-20T14:54:32;1.60;1.00
9699;DHT22;10089;47.876;8.346;2023-12-20T14:56:58;3.40;1.00
9699;DHT22;10089;47.876;8.346;2023-12-20T14:59:24;4.20;1.00
9699;DHT22;10089;47.876;8.346;2023-12-20T15:01:50;1.60;1.00
9699;DHT22;10089;47.876;8.346;2023-12-20T15:04:16;1.20;1.00
9699;DHT22;10089;47.876;8.346;2023-12-20T15:06:41;2.00;1.00
9699;DHT22;10089;47.876;8.346;2023-12-20T15:09:07;3.70;1.00
9699;DHT22;10089;47.876;8.346;2023-12-20T15:11:34;1.30;1.00
9699;DHT22;10089;47.876;8.346;2023-12-20T15:14:00;1.00;1.00
9699;DHT22;10089;47.876;8.346;2023-12-20T15:16:26;3.80;1.00
9699;DHT22;10089;47.876;8.346;2023-12-20T15:18:52;2.30;1.00
9699;DHT22;10089;47.876;8.346;2023-12-20T15:21:21;1.30;1.00
9699;DHT22;10089;47.876;8.346;2023-12-20T15:23:55;1.10;1.00
9699;DHT22;10089;47.876;8.346;2023-12-20T15:26:32;1.60;1.00
9699;DHT22;10089;47.876;8.346;2023-12-20T15:28:57;3.30;1.00
9699;DHT22;10089;47.876;8.346;2023-12-20T15:31:24;1.80;1.00
9699;DHT22;10089;47.876;8.346;2023-12-20T15:33:52;3.40;1.00
9699;DHT22;10089;47.876;8.346;2023-12-20T15:36:17;1.80;1.00
9699;DHT22;10089;47.876;8.346;2023-12-20T15:38:43;1.60;1.00
9699;DHT22;10089;47.876;8.346;2023-12-20T15:41:09;1.60;1.00
9699;DHT22;10089;47.876;8.346;2023-12-20T15:43:34;1.70;1.00
9699;DHT22;10089;47.876;8.346;2023-12-20T15:46:01;4.10;1.00
9699;DHT22;10089;47.876;8.346;2023-12-20T15:48:28;1.30;1.00
9699;DHT22;10089;47.876;8.346;2023-12-20T15:50:56;3.60;1.00
9699;DHT22;10089;47.876;8.346;2023-12-20T15:53:22;1.00;1.00
9699;DHT22;10089;47.876;8.346;2023-12-20T15:55:48;1.00;1.00
9699;DHT22;10089;47.876;8.346;2023-12-20T15:58:13;2.80;1.00
9699;DHT22;10089;47.876;8.346;2023-12-20T16:00:39;3.40;1.00
9699;DHT22;10089;47.876;8.346;2023-12-20T16:03:07;1.10;1.00
9699;DHT22;10089;47.876;8.346;2023-12-20T16:05:33;0.70;1.00
9699;DHT22;10089;47.876;8.346;2023-12-20T16:07:58;1.30;1.00
9699;DHT22;10089;47.876;8.346;2023-12-20T16:10:24;0.70;1.00
9699;DHT22;10089;47.876;8.346;2023-12-20T16:12:49;1.20;1.00